Time,TemperatureF,DewpointF,PressureIn,WindDirection,WindDirectionDegrees,WindSpeedMPH,WindSpeedGustMPH,Humidity,HourlyPrecipIn,Conditions,Clouds,dailyrainin,SoftwareType,DateUTC
2013-03-14 00:00:00,38.8,20.8,30.15,NW,308,4.0,5.0,48,0.00,,,0.00,Wunderground v.1.15,2013-03-14 04:00:00,
2013-03-14 00:05:00,38.7,21.2,30.15,NW,321,4.0,5.0,49,0.00,,,0.00,Wunderground v.1.15,2013-03-14 04:05:00,
2013-03-14 00:10:00,38.6,21.5,30.16,NW,311,4.0,4.0,50,0.00,,,0.00,Wunderground v.1.15,2013-03-14 04:10:00,
2013-03-14 00:15:00,38.2,22.1,30.15,WNW,300,2.0,4.0,52,0.00,,,0.00,Wunderground v.1.15,2013-03-14 04:15:00,
2013-03-14 00:20:00,37.9,21.8,30.16,WNW,302,1.0,2.0,52,0.00,,,0.00,Wunderground v.1.15,2013-03-14 04:20:00,
2013-03-14 00:30:00,37.4,21.8,30.16,WNW,297,1.0,1.0,53,0.00,,,0.00,Wunderground v.1.15,2013-03-14 04:30:00,
2013-03-14 00:35:00,37.2,22.1,30.16,WNW,298,1.0,1.0,54,0.00,,,0.00,Wunderground v.1.15,2013-03-14 04:35:00,
2013-03-14 00:40:00,37.1,22.4,30.16,NW,307,1.0,5.0,55,0.00,,,0.00,Wunderground v.1.15,2013-03-14 04:40:00,
2013-03-14 00:45:00,37.0,22.3,30.16,NW,324,2.0,5.0,55,0.00,,,0.00,Wunderground v.1.15,2013-03-14 04:45:00,
2013-03-14 00:55:00,37.0,22.7,30.17,NW,311,3.0,10.0,56,0.00,,,0.00,Wunderground v.1.15,2013-03-14 04:55:00,
2013-03-14 01:00:00,36.8,23.0,30.17,NW,311,3.0,3.0,57,0.00,,,0.00,Wunderground v.1.15,2013-03-14 05:00:00,
2013-03-14 01:05:00,36.4,23.0,30.17,NW,311,1.0,3.0,58,0.00,,,0.00,Wunderground v.1.15,2013-03-14 05:05:00,
2013-03-14 01:15:00,36.0,23.0,30.17,NW,318,1.0,1.0,59,0.00,,,0.00,Wunderground v.1.15,2013-03-14 05:15:00,
2013-03-14 01:25:00,35.8,22.9,30.17,WNW,293,2.0,7.0,59,0.00,,,0.00,Wunderground v.1.15,2013-03-14 05:25:00,
2013-03-14 01:30:00,35.8,22.9,30.17,WNW,298,3.0,5.0,59,0.00,,,0.00,Wunderground v.1.15,2013-03-14 05:30:00,
2013-03-14 01:35:00,36.0,21.8,30.18,NW,317,5.0,5.0,56,0.00,,,0.00,Wunderground v.1.15,2013-03-14 05:35:00,
2013-03-14 01:40:00,36.0,21.8,30.18,NW,308,4.0,4.0,56,0.00,,,0.00,Wunderground v.1.15,2013-03-14 05:40:00,
2013-03-14 01:45:00,35.8,21.2,30.18,WNW,301,2.0,4.0,55,0.00,,,0.00,Wunderground v.1.15,2013-03-14 05:45:00,
2013-03-14 01:50:00,35.7,21.1,30.18,NW,310,3.0,7.0,55,0.00,,,0.00,Wunderground v.1.15,2013-03-14 05:50:00,
2013-03-14 01:55:00,35.6,21.0,30.18,NW,316,3.0,7.0,55,0.00,,,0.00,Wunderground v.1.15,2013-03-14 05:55:00,
2013-03-14 02:00:00,35.5,21.3,30.18,NW,322,4.0,5.0,56,0.00,,,0.00,Wunderground v.1.15,2013-03-14 06:00:00,
2013-03-14 02:05:00,35.4,21.2,30.18,WNW,292,3.0,5.0,56,0.00,,,0.00,Wunderground v.1.15,2013-03-14 06:05:00,
2013-03-14 02:15:00,35.3,20.7,30.18,WNW,302,4.0,4.0,55,0.00,,,0.00,Wunderground v.1.15,2013-03-14 06:15:00,
2013-03-14 02:20:00,35.3,20.3,30.18,NW,313,5.0,5.0,54,0.00,,,0.00,Wunderground v.1.15,2013-03-14 06:20:00,
2013-03-14 02:30:00,35.1,20.5,30.18,WNW,300,5.0,5.0,55,0.00,,,0.00,Wunderground v.1.15,2013-03-14 06:30:00,
2013-03-14 02:35:00,34.9,20.4,30.18,WNW,296,4.0,6.0,55,0.00,,,0.00,Wunderground v.1.15,2013-03-14 06:35:00,
2013-03-14 02:40:00,35.0,20.0,30.18,WNW,302,4.0,12.0,54,0.00,,,0.00,Wunderground v.1.15,2013-03-14 06:40:00,
2013-03-14 02:45:00,34.9,19.9,30.18,NW,306,6.0,12.0,54,0.00,,,0.00,Wunderground v.1.15,2013-03-14 06:45:00,
2013-03-14 02:50:00,34.9,19.5,30.18,NW,323,4.0,9.0,53,0.00,,,0.00,Wunderground v.1.15,2013-03-14 06:50:00,
2013-03-14 02:55:00,34.8,19.8,30.18,NW,326,4.0,9.0,54,0.00,,,0.00,Wunderground v.1.15,2013-03-14 06:55:00,
2013-03-14 03:00:00,34.6,19.6,30.18,WNW,294,3.0,5.0,54,0.00,,,0.00,Wunderground v.1.15,2013-03-14 07:00:00,
2013-03-14 03:05:00,34.6,19.6,30.18,NNW,330,6.0,6.0,54,0.00,,,0.00,Wunderground v.1.15,2013-03-14 07:05:00,
2013-03-14 03:15:00,34.5,19.5,30.18,WNW,300,4.0,5.0,54,0.00,,,0.00,Wunderground v.1.15,2013-03-14 07:15:00,
2013-03-14 03:20:00,34.2,19.7,30.18,NW,307,4.0,4.0,55,0.00,,,0.00,Wunderground v.1.15,2013-03-14 07:20:00,
2013-03-14 03:30:00,34.0,19.9,30.18,NW,307,2.0,2.0,56,0.00,,,0.00,Wunderground v.1.15,2013-03-14 07:30:00,
2013-03-14 03:35:00,33.8,20.2,30.18,NW,306,1.0,2.0,57,0.00,,,0.00,Wunderground v.1.15,2013-03-14 07:35:00,
2013-03-14 03:40:00,33.6,20.4,30.18,WNW,296,2.0,6.0,58,0.00,,,0.00,Wunderground v.1.15,2013-03-14 07:40:00,
2013-03-14 03:45:00,33.5,20.3,30.18,WNW,294,3.0,6.0,58,0.00,,,0.00,Wunderground v.1.15,2013-03-14 07:45:00,
2013-03-14 03:50:00,33.4,20.2,30.18,NNW,340,4.0,4.0,58,0.00,,,0.00,Wunderground v.1.15,2013-03-14 07:50:00,
2013-03-14 04:00:00,33.3,20.1,30.18,WNW,291,1.0,2.0,58,0.00,,,0.00,Wunderground v.1.15,2013-03-14 08:00:00,
2013-03-14 04:05:00,33.1,20.3,30.18,WNW,295,2.0,6.0,59,0.00,,,0.00,Wunderground v.1.15,2013-03-14 08:05:00,
2013-03-14 04:15:00,32.7,20.7,30.18,WNW,299,1.0,2.0,61,0.00,,,0.00,Wunderground v.1.15,2013-03-14 08:15:00,
2013-03-14 04:20:00,32.6,20.2,30.18,WNW,301,2.0,4.0,60,0.00,,,0.00,Wunderground v.1.15,2013-03-14 08:20:00,
2013-03-14 04:30:00,32.5,19.7,30.18,WNW,302,1.0,1.0,59,0.00,,,0.00,Wunderground v.1.15,2013-03-14 08:30:00,
2013-03-14 04:40:00,32.2,20.2,30.18,WNW,302,1.0,2.0,61,0.00,,,0.00,Wunderground v.1.15,2013-03-14 08:40:00,
2013-03-14 04:45:00,31.9,20.7,30.18,WNW,302,1.0,2.0,63,0.00,,,0.00,Wunderground v.1.15,2013-03-14 08:45:00,
2013-03-14 04:55:00,31.6,20.8,30.18,WNW,302,1.0,2.0,64,0.00,,,0.00,Wunderground v.1.15,2013-03-14 08:55:00,
2013-03-14 05:05:00,31.5,20.3,30.19,WNW,302,0.0,1.0,63,0.00,,,0.00,Wunderground v.1.15,2013-03-14 09:05:00,
2013-03-14 05:15:00,31.4,20.2,30.19,WNW,302,0.0,0.0,63,0.00,,,0.00,Wunderground v.1.15,2013-03-14 09:15:00,
2013-03-14 05:25:00,31.3,20.2,30.19,WNW,302,0.0,0.0,63,0.00,,,0.00,Wunderground v.1.15,2013-03-14 09:25:00,
2013-03-14 05:35:00,31.0,20.6,30.19,WNW,302,1.0,4.0,65,0.00,,,0.00,Wunderground v.1.15,2013-03-14 09:35:00,
2013-03-14 05:40:00,30.8,21.5,30.19,WNW,302,3.0,3.0,68,0.00,,,0.00,Wunderground v.1.15,2013-03-14 09:40:00,
2013-03-14 05:45:00,30.7,21.0,30.20,WNW,300,2.0,3.0,67,0.00,,,0.00,Wunderground v.1.15,2013-03-14 09:45:00,
2013-03-14 05:55:00,30.7,21.0,30.20,WNW,294,1.0,1.0,67,0.00,,,0.00,Wunderground v.1.15,2013-03-14 09:55:00,
2013-03-14 06:05:00,30.9,20.9,30.20,WNW,294,0.0,4.0,66,0.00,,,0.00,Wunderground v.1.15,2013-03-14 10:05:00,
2013-03-14 06:15:00,30.9,20.9,30.21,WNW,294,1.0,2.0,66,0.00,,,0.00,Wunderground v.1.15,2013-03-14 10:15:00,
2013-03-14 06:25:00,30.6,20.9,30.21,WNW,294,1.0,2.0,67,0.00,,,0.00,Wunderground v.1.15,2013-03-14 10:25:00,
2013-03-14 06:30:00,30.5,20.8,30.22,WNW,294,0.0,0.0,67,0.00,,,0.00,Wunderground v.1.15,2013-03-14 10:30:00,
2013-03-14 06:35:00,30.5,20.8,30.22,WNW,294,0.0,0.0,67,0.00,,,0.00,Wunderground v.1.15,2013-03-14 10:35:00,
2013-03-14 06:45:00,30.6,21.3,30.22,WNW,293,0.0,0.0,68,0.00,,,0.00,Wunderground v.1.15,2013-03-14 10:45:00,
2013-03-14 06:55:00,30.6,21.6,30.22,WNW,293,1.0,5.0,69,0.00,,,0.00,Wunderground v.1.15,2013-03-14 10:55:00,
2013-03-14 07:00:00,30.5,21.2,30.22,WNW,294,1.0,1.0,68,0.00,,,0.00,Wunderground v.1.15,2013-03-14 11:00:00,
2013-03-14 07:05:00,30.5,20.8,30.22,WNW,294,1.0,1.0,67,0.00,,,0.00,Wunderground v.1.15,2013-03-14 11:05:00,
2013-03-14 07:15:00,30.4,21.1,30.23,WNW,294,0.0,1.0,68,0.00,,,0.00,Wunderground v.1.15,2013-03-14 11:15:00,
2013-03-14 07:20:00,30.3,21.0,30.23,WNW,294,0.0,0.0,68,0.00,,,0.00,Wunderground v.1.15,2013-03-14 11:20:00,
2013-03-14 07:25:00,30.2,21.2,30.23,WNW,294,0.0,0.0,69,0.00,,,0.00,Wunderground v.1.15,2013-03-14 11:25:00,
2013-03-14 07:30:00,30.2,20.9,30.23,WNW,294,0.0,0.0,68,0.00,,,0.00,Wunderground v.1.15,2013-03-14 11:30:00,
2013-03-14 07:35:00,30.2,21.2,30.24,WNW,294,0.0,0.0,69,0.00,,,0.00,Wunderground v.1.15,2013-03-14 11:35:00,
2013-03-14 07:40:00,30.2,21.2,30.23,WNW,294,0.0,0.0,69,0.00,,,0.00,Wunderground v.1.15,2013-03-14 11:40:00,
2013-03-14 07:45:00,30.1,21.2,30.24,WNW,294,0.0,0.0,69,0.00,,,0.00,Wunderground v.1.15,2013-03-14 11:45:00,
2013-03-14 07:50:00,30.0,21.7,30.24,WNW,294,0.0,1.0,71,0.00,,,0.00,Wunderground v.1.15,2013-03-14 11:50:00,
2013-03-14 07:55:00,30.1,21.5,30.24,WNW,294,0.0,1.0,70,0.00,,,0.00,Wunderground v.1.15,2013-03-14 11:55:00,
2013-03-14 08:05:00,30.5,21.9,30.24,WNW,294,0.0,0.0,70,0.00,,,0.00,Wunderground v.1.15,2013-03-14 12:05:00,
2013-03-14 08:15:00,31.0,22.0,30.24,NW,309,1.0,1.0,69,0.00,,,0.00,Wunderground v.1.15,2013-03-14 12:15:00,
2013-03-14 08:20:00,31.5,22.1,30.25,WNW,293,2.0,2.0,68,0.00,,,0.00,Wunderground v.1.15,2013-03-14 12:20:00,
2013-03-14 08:25:00,31.9,22.5,30.25,WNW,292,2.0,6.0,68,0.00,,,0.00,Wunderground v.1.15,2013-03-14 12:25:00,
2013-03-14 08:30:00,32.4,22.3,30.25,West,268,2.0,3.0,66,0.00,,,0.00,Wunderground v.1.15,2013-03-14 12:30:00,
2013-03-14 08:45:00,33.6,22.3,30.25,West,281,4.0,6.0,63,0.00,,,0.00,Wunderground v.1.15,2013-03-14 12:45:00,
2013-03-14 08:50:00,34.1,22.4,30.25,WNW,284,4.0,7.0,62,0.00,,,0.00,Wunderground v.1.15,2013-03-14 12:50:00,
2013-03-14 08:55:00,34.4,21.9,30.25,WNW,285,5.0,7.0,60,0.00,,,0.00,Wunderground v.1.15,2013-03-14 12:55:00,
2013-03-14 09:00:00,34.6,21.7,30.26,NW,309,6.0,9.0,59,0.00,,,0.00,Wunderground v.1.15,2013-03-14 13:00:00,
2013-03-14 09:05:00,34.9,22.0,30.26,NW,307,6.0,9.0,59,0.00,,,0.00,Wunderground v.1.15,2013-03-14 13:05:00,
2013-03-14 09:15:00,35.5,21.8,30.25,WNW,302,6.0,12.0,57,0.00,,,0.00,Wunderground v.1.15,2013-03-14 13:15:00,
2013-03-14 09:20:00,36.2,23.2,30.26,WNW,292,6.0,6.0,59,0.00,,,0.00,Wunderground v.1.15,2013-03-14 13:20:00,
2013-03-14 09:25:00,36.3,22.1,30.26,WNW,298,6.0,7.0,56,0.00,,,0.00,Wunderground v.1.15,2013-03-14 13:25:00,
2013-03-14 09:30:00,36.3,21.7,30.26,WSW,257,6.0,6.0,55,0.00,,,0.00,Wunderground v.1.15,2013-03-14 13:30:00,
2013-03-14 09:35:00,37.0,22.7,30.26,NW,309,5.0,6.0,56,0.00,,,0.00,Wunderground v.1.15,2013-03-14 13:35:00,
2013-03-14 09:40:00,36.7,21.2,30.26,WNW,283,5.0,5.0,53,0.00,,,0.00,Wunderground v.1.15,2013-03-14 13:40:00,
2013-03-14 09:50:00,37.1,21.5,30.26,WNW,300,7.0,11.0,53,0.00,,,0.00,Wunderground v.1.15,2013-03-14 13:50:00,
2013-03-14 10:00:00,37.9,21.8,30.26,WNW,298,7.0,7.0,52,0.00,,,0.00,Wunderground v.1.15,2013-03-14 14:00:00,
2013-03-14 10:05:00,37.7,21.6,30.26,NW,306,8.0,9.0,52,0.00,,,0.00,Wunderground v.1.15,2013-03-14 14:05:00,
2013-03-14 10:15:00,38.3,22.6,30.26,WNW,294,7.0,11.0,53,0.00,,,0.00,Wunderground v.1.15,2013-03-14 14:15:00,
2013-03-14 10:25:00,38.6,22.0,30.26,WNW,288,7.0,14.0,51,0.00,,,0.00,Wunderground v.1.15,2013-03-14 14:25:00,
2013-03-14 10:30:00,38.9,21.8,30.26,NW,316,7.0,7.0,50,0.00,,,0.00,Wunderground v.1.15,2013-03-14 14:30:00,
2013-03-14 10:35:00,39.1,21.5,30.26,North,355,8.0,11.0,49,0.00,,,0.00,Wunderground v.1.15,2013-03-14 14:35:00,
2013-03-14 10:40:00,39.3,21.2,30.26,WNW,298,8.0,9.0,48,0.00,,,0.00,Wunderground v.1.15,2013-03-14 14:40:00,
2013-03-14 10:45:00,39.7,21.6,30.26,North,355,8.0,9.0,48,0.00,,,0.00,Wunderground v.1.15,2013-03-14 14:45:00,
2013-03-14 10:55:00,40.0,20.3,30.26,WNW,296,6.0,9.0,45,0.00,,,0.00,Wunderground v.1.15,2013-03-14 14:55:00,
2013-03-14 11:00:00,40.0,21.9,30.26,WNW,295,8.0,8.0,48,0.00,,,0.00,Wunderground v.1.15,2013-03-14 15:00:00,
2013-03-14 11:05:00,40.4,21.7,30.26,WNW,292,9.0,9.0,47,0.00,,,0.00,Wunderground v.1.15,2013-03-14 15:05:00,
2013-03-14 11:15:00,41.4,22.7,30.26,West,271,7.0,8.0,47,0.00,,,0.00,Wunderground v.1.15,2013-03-14 15:15:00,
2013-03-14 11:25:00,41.1,21.9,30.26,NNW,341,9.0,11.0,46,0.00,,,0.00,Wunderground v.1.15,2013-03-14 15:25:00,
2013-03-14 11:30:00,40.8,21.1,30.26,NW,311,10.0,10.0,45,0.00,,,0.00,Wunderground v.1.15,2013-03-14 15:30:00,
2013-03-14 11:35:00,41.6,21.3,30.26,WNW,295,7.0,10.0,44,0.00,,,0.00,Wunderground v.1.15,2013-03-14 15:35:00,
2013-03-14 11:40:00,41.8,21.5,30.26,NNW,348,6.0,6.0,44,0.00,,,0.00,Wunderground v.1.15,2013-03-14 15:40:00,
2013-03-14 11:45:00,42.6,22.2,30.26,West,277,6.0,6.0,44,0.00,,,0.00,Wunderground v.1.15,2013-03-14 15:45:00,
2013-03-14 11:50:00,42.9,21.4,30.26,West,264,6.0,7.0,42,0.00,,,0.00,Wunderground v.1.15,2013-03-14 15:50:00,
2013-03-14 11:55:00,42.9,22.5,30.25,WNW,294,8.0,8.0,44,0.00,,,0.00,Wunderground v.1.15,2013-03-14 15:55:00,
2013-03-14 12:00:00,43.4,23.4,30.25,NNW,336,8.0,8.0,45,0.00,,,0.00,Wunderground v.1.15,2013-03-14 16:00:00,
2013-03-14 12:05:00,43.7,20.9,30.25,WNW,298,7.0,12.0,40,0.00,,,0.00,Wunderground v.1.15,2013-03-14 16:05:00,
2013-03-14 12:15:00,43.3,21.7,30.24,West,262,9.0,9.0,42,0.00,,,0.00,Wunderground v.1.15,2013-03-14 16:15:00,
2013-03-14 12:20:00,43.3,21.7,30.25,North,360,8.0,8.0,42,0.00,,,0.00,Wunderground v.1.15,2013-03-14 16:20:00,
2013-03-14 12:30:00,44.2,21.4,30.24,WNW,288,8.0,11.0,40,0.00,,,0.00,Wunderground v.1.15,2013-03-14 16:30:00,
2013-03-14 12:35:00,44.5,21.6,30.24,WNW,299,7.0,12.0,40,0.00,,,0.00,Wunderground v.1.15,2013-03-14 16:35:00,
2013-03-14 12:45:00,44.6,22.3,30.23,West,269,7.0,8.0,41,0.00,,,0.00,Wunderground v.1.15,2013-03-14 16:45:00,
2013-03-14 12:50:00,44.6,21.7,30.23,WNW,294,6.0,7.0,40,0.00,,,0.00,Wunderground v.1.15,2013-03-14 16:50:00,
2013-03-14 13:00:00,44.7,20.6,30.23,West,272,7.0,7.0,38,0.00,,,0.00,Wunderground v.1.15,2013-03-14 17:00:00,
2013-03-14 13:05:00,44.6,21.1,30.23,NW,308,7.0,7.0,39,0.00,,,0.00,Wunderground v.1.15,2013-03-14 17:05:00,
2013-03-14 13:15:00,46.0,23.0,30.22,WSW,255,8.0,11.0,40,0.00,,,0.00,Wunderground v.1.15,2013-03-14 17:15:00,
2013-03-14 13:20:00,45.6,21.4,30.22,WSW,256,9.0,9.0,38,0.00,,,0.00,Wunderground v.1.15,2013-03-14 17:20:00,
2013-03-14 13:25:00,46.1,21.9,30.22,West,266,9.0,9.0,38,0.00,,,0.00,Wunderground v.1.15,2013-03-14 17:25:00,
2013-03-14 13:30:00,45.9,23.5,30.22,West,270,8.0,8.0,41,0.00,,,0.00,Wunderground v.1.15,2013-03-14 17:30:00,
2013-03-14 13:40:00,46.6,22.3,30.21,WSW,246,7.0,14.0,38,0.00,,,0.00,Wunderground v.1.15,2013-03-14 17:40:00,
2013-03-14 13:50:00,47.1,22.8,30.20,West,269,8.0,13.0,38,0.00,,,0.00,Wunderground v.1.15,2013-03-14 17:50:00,
2013-03-14 13:55:00,46.5,20.9,30.21,SW,224,9.0,13.0,36,0.00,,,0.00,Wunderground v.1.15,2013-03-14 17:55:00,
2013-03-14 14:05:00,47.8,22.1,30.20,NW,308,7.0,8.0,36,0.00,,,0.00,Wunderground v.1.15,2013-03-14 18:05:00,
2013-03-14 14:15:00,47.6,23.2,30.20,West,281,9.0,13.0,38,0.00,,,0.00,Wunderground v.1.15,2013-03-14 18:15:00,
2013-03-14 14:25:00,47.8,22.8,30.19,West,266,9.0,10.0,37,0.00,,,0.00,Wunderground v.1.15,2013-03-14 18:25:00,
2013-03-14 14:35:00,48.4,23.9,30.19,NW,323,8.0,10.0,38,0.00,,,0.00,Wunderground v.1.15,2013-03-14 18:35:00,
2013-03-14 14:40:00,48.8,22.3,30.18,NW,320,7.0,7.0,35,0.00,,,0.00,Wunderground v.1.15,2013-03-14 18:40:00,
2013-03-14 14:45:00,49.1,22.6,30.18,NW,307,8.0,8.0,35,0.00,,,0.00,Wunderground v.1.15,2013-03-14 18:45:00,
2013-03-14 14:50:00,49.2,22.7,30.18,WNW,290,10.0,10.0,35,0.00,,,0.00,Wunderground v.1.15,2013-03-14 18:50:00,
2013-03-14 14:55:00,49.6,23.0,30.17,NNW,329,10.0,10.0,35,0.00,,,0.00,Wunderground v.1.15,2013-03-14 18:55:00,
2013-03-14 15:05:00,49.7,23.8,30.17,West,261,9.0,14.0,36,0.00,,,0.00,Wunderground v.1.15,2013-03-14 19:05:00,
2013-03-14 15:15:00,49.7,23.8,30.17,NW,308,11.0,17.0,36,0.00,,,0.00,Wunderground v.1.15,2013-03-14 19:15:00,
2013-03-14 15:20:00,50.0,22.7,30.16,NW,308,10.0,10.0,34,0.00,,,0.00,Wunderground v.1.15,2013-03-14 19:20:00,
2013-03-14 15:25:00,50.5,23.1,30.16,West,261,9.0,14.0,34,0.00,,,0.00,Wunderground v.1.15,2013-03-14 19:25:00,
2013-03-14 15:35:00,51.0,22.9,30.16,West,268,9.0,9.0,33,0.00,,,0.00,Wunderground v.1.15,2013-03-14 19:35:00,
2013-03-14 15:40:00,50.9,23.5,30.16,West,269,9.0,11.0,34,0.00,,,0.00,Wunderground v.1.15,2013-03-14 19:40:00,
2013-03-14 15:50:00,51.8,22.8,30.16,West,281,9.0,9.0,32,0.00,,,0.00,Wunderground v.1.15,2013-03-14 19:50:00,
2013-03-14 15:55:00,51.5,22.6,30.16,West,279,9.0,19.0,32,0.00,,,0.00,Wunderground v.1.15,2013-03-14 19:55:00,
2013-03-14 16:05:00,52.1,23.1,30.16,NW,315,7.0,10.0,32,0.00,,,0.00,Wunderground v.1.15,2013-03-14 20:05:00,
2013-03-14 16:15:00,52.4,23.4,30.15,WNW,301,7.0,8.0,32,0.00,,,0.00,Wunderground v.1.15,2013-03-14 20:15:00,
2013-03-14 16:25:00,52.4,22.6,30.15,WNW,290,10.0,11.0,31,0.00,,,0.00,Wunderground v.1.15,2013-03-14 20:25:00,
2013-03-14 16:35:00,52.7,23.6,30.15,NW,323,9.0,10.0,32,0.00,,,0.00,Wunderground v.1.15,2013-03-14 20:35:00,
2013-03-14 16:40:00,52.7,22.1,30.15,West,274,8.0,9.0,30,0.00,,,0.00,Wunderground v.1.15,2013-03-14 20:40:00,
2013-03-14 16:45:00,52.4,21.0,30.14,West,265,8.0,9.0,29,0.00,,,0.00,Wunderground v.1.15,2013-03-14 20:45:00,
2013-03-14 16:50:00,53.0,20.7,30.14,WNW,288,8.0,12.0,28,0.00,,,0.00,Wunderground v.1.15,2013-03-14 20:50:00,
2013-03-14 16:55:00,53.5,21.2,30.14,NNW,333,8.0,12.0,28,0.00,,,0.00,Wunderground v.1.15,2013-03-14 20:55:00,
2013-03-14 17:00:00,53.2,20.9,30.13,NW,306,8.0,8.0,28,0.00,,,0.00,Wunderground v.1.15,2013-03-14 21:00:00,
2013-03-14 17:05:00,53.3,22.6,30.13,NW,313,8.0,11.0,30,0.00,,,0.00,Wunderground v.1.15,2013-03-14 21:05:00,
2013-03-14 17:15:00,53.3,22.6,30.13,North,360,7.0,7.0,30,0.00,,,0.00,Wunderground v.1.15,2013-03-14 21:15:00,
2013-03-14 17:20:00,53.3,21.8,30.13,WNW,299,6.0,7.0,29,0.00,,,0.00,Wunderground v.1.15,2013-03-14 21:20:00,
2013-03-14 17:30:00,53.1,22.4,30.13,West,262,6.0,6.0,30,0.00,,,0.00,Wunderground v.1.15,2013-03-14 21:30:00,
2013-03-14 17:35:00,53.3,21.8,30.13,WNW,294,7.0,7.0,29,0.00,,,0.00,Wunderground v.1.15,2013-03-14 21:35:00,
2013-03-14 17:45:00,52.8,21.4,30.13,WNW,294,9.0,15.0,29,0.00,,,0.00,Wunderground v.1.15,2013-03-14 21:45:00,
2013-03-14 17:50:00,52.5,20.3,30.13,WNW,295,11.0,11.0,28,0.00,,,0.00,Wunderground v.1.15,2013-03-14 21:50:00,
2013-03-14 17:55:00,52.4,20.2,30.13,WNW,289,9.0,11.0,28,0.00,,,0.00,Wunderground v.1.15,2013-03-14 21:55:00,
2013-03-14 18:00:00,52.5,21.1,30.13,WNW,303,8.0,8.0,29,0.00,,,0.00,Wunderground v.1.15,2013-03-14 22:00:00,
2013-03-14 18:05:00,52.5,21.1,30.13,NNW,345,7.0,8.0,29,0.00,,,0.00,Wunderground v.1.15,2013-03-14 22:05:00,
2013-03-14 18:15:00,52.3,20.9,30.13,WNW,288,7.0,8.0,29,0.00,,,0.00,Wunderground v.1.15,2013-03-14 22:15:00,
2013-03-14 18:20:00,52.2,21.7,30.13,WNW,296,6.0,6.0,30,0.00,,,0.00,Wunderground v.1.15,2013-03-14 22:20:00,
2013-03-14 18:25:00,52.0,19.0,30.13,NW,304,6.0,8.0,27,0.00,,,0.00,Wunderground v.1.15,2013-03-14 22:25:00,
2013-03-14 18:30:00,51.8,18.0,30.13,NNW,340,7.0,7.0,26,0.00,,,0.00,Wunderground v.1.15,2013-03-14 22:30:00,
2013-03-14 18:35:00,51.6,18.7,30.13,WNW,298,8.0,8.0,27,0.00,,,0.00,Wunderground v.1.15,2013-03-14 22:35:00,
2013-03-14 18:40:00,51.3,18.4,30.13,West,271,8.0,8.0,27,0.00,,,0.00,Wunderground v.1.15,2013-03-14 22:40:00,
2013-03-14 18:45:00,51.0,19.8,30.14,WNW,303,7.0,8.0,29,0.00,,,0.00,Wunderground v.1.15,2013-03-14 22:45:00,
2013-03-14 18:50:00,50.7,18.7,30.14,NW,319,5.0,5.0,28,0.00,,,0.00,Wunderground v.1.15,2013-03-14 22:50:00,
2013-03-14 18:55:00,50.5,20.2,30.14,NW,311,5.0,7.0,30,0.00,,,0.00,Wunderground v.1.15,2013-03-14 22:55:00,
2013-03-14 19:00:00,50.1,21.3,30.14,WNW,293,6.0,11.0,32,0.00,,,0.00,Wunderground v.1.15,2013-03-14 23:00:00,
2013-03-14 19:05:00,49.7,20.2,30.14,WNW,300,4.0,11.0,31,0.00,,,0.00,Wunderground v.1.15,2013-03-14 23:05:00,
2013-03-14 19:15:00,49.0,19.6,30.14,West,276,1.0,2.0,31,0.00,,,0.00,Wunderground v.1.15,2013-03-14 23:15:00,
2013-03-14 19:20:00,48.6,19.3,30.14,WNW,285,1.0,4.0,31,0.00,,,0.00,Wunderground v.1.15,2013-03-14 23:20:00,
2013-03-14 19:30:00,47.9,20.1,30.15,WNW,298,1.0,1.0,33,0.00,,,0.00,Wunderground v.1.15,2013-03-14 23:30:00,
2013-03-14 19:45:00,46.4,21.5,30.15,WNW,285,0.0,0.0,37,0.00,,,0.00,Wunderground v.1.15,2013-03-14 23:45:00,
2013-03-14 19:55:00,45.7,20.9,30.15,WNW,285,0.0,0.0,37,0.00,,,0.00,Wunderground v.1.15,2013-03-14 23:55:00,
2013-03-14 20:05:00,45.5,20.1,30.15,WNW,285,0.0,0.0,36,0.00,,,0.00,Wunderground v.1.15,2013-03-15 00:05:00,
2013-03-14 20:15:00,44.8,21.3,30.16,WNW,285,0.0,0.0,39,0.00,,,0.00,Wunderground v.1.15,2013-03-15 00:15:00,
2013-03-14 20:20:00,44.1,24.1,30.16,WNW,285,0.0,0.0,45,0.00,,,0.00,Wunderground v.1.15,2013-03-15 00:20:00,
2013-03-14 20:30:00,42.9,22.5,30.16,WNW,285,0.0,0.0,44,0.00,,,0.00,Wunderground v.1.15,2013-03-15 00:30:00,
2013-03-14 20:35:00,43.0,21.4,30.16,WNW,285,0.0,0.0,42,0.00,,,0.00,Wunderground v.1.15,2013-03-15 00:35:00,
2013-03-14 20:40:00,43.1,21.0,30.16,WNW,285,0.0,0.0,41,0.00,,,0.00,Wunderground v.1.15,2013-03-15 00:40:00,
2013-03-14 20:50:00,42.8,23.9,30.16,WNW,285,0.0,0.0,47,0.00,,,0.00,Wunderground v.1.15,2013-03-15 00:50:00,
2013-03-14 21:00:00,42.3,22.4,30.16,WNW,285,0.0,0.0,45,0.00,,,0.00,Wunderground v.1.15,2013-03-15 01:00:00,
2013-03-14 21:05:00,41.9,24.1,30.17,WNW,285,0.0,0.0,49,0.00,,,0.00,Wunderground v.1.15,2013-03-15 01:05:00,
2013-03-14 21:15:00,41.1,23.4,30.17,WNW,285,0.0,0.0,49,0.00,,,0.00,Wunderground v.1.15,2013-03-15 01:15:00,
2013-03-14 21:20:00,40.7,23.5,30.17,WNW,285,0.0,0.0,50,0.00,,,0.00,Wunderground v.1.15,2013-03-15 01:20:00,
2013-03-14 21:25:00,40.4,23.7,30.17,WNW,285,0.0,0.0,51,0.00,,,0.00,Wunderground v.1.15,2013-03-15 01:25:00,
2013-03-14 21:35:00,40.2,25.3,30.17,WNW,285,0.0,0.0,55,0.00,,,0.00,Wunderground v.1.15,2013-03-15 01:35:00,
2013-03-14 21:40:00,39.6,25.2,30.17,WNW,285,0.0,0.0,56,0.00,,,0.00,Wunderground v.1.15,2013-03-15 01:40:00,
2013-03-14 21:50:00,38.2,25.9,30.17,WNW,285,0.0,0.0,61,0.00,,,0.00,Wunderground v.1.15,2013-03-15 01:50:00,
2013-03-14 22:00:00,38.2,24.3,30.17,WNW,285,0.0,0.0,57,0.00,,,0.00,Wunderground v.1.15,2013-03-15 02:00:00,
2013-03-14 22:05:00,38.8,24.4,30.17,WNW,285,0.0,1.0,56,0.00,,,0.00,Wunderground v.1.15,2013-03-15 02:05:00,
2013-03-14 22:15:00,39.1,26.4,30.17,WNW,285,0.0,0.0,60,0.00,,,0.00,Wunderground v.1.15,2013-03-15 02:15:00,
2013-03-14 22:20:00,38.8,25.7,30.18,WNW,285,0.0,0.0,59,0.00,,,0.00,Wunderground v.1.15,2013-03-15 02:20:00,
2013-03-14 22:25:00,37.4,27.1,30.18,WNW,285,0.0,0.0,66,0.00,,,0.00,Wunderground v.1.15,2013-03-15 02:25:00,
2013-03-14 22:35:00,36.5,25.8,30.18,WNW,285,0.0,1.0,65,0.00,,,0.00,Wunderground v.1.15,2013-03-15 02:35:00,
2013-03-14 22:40:00,38.1,24.6,30.18,WNW,285,0.0,0.0,58,0.00,,,0.00,Wunderground v.1.15,2013-03-15 02:40:00,
2013-03-14 22:45:00,39.3,24.0,30.18,WNW,285,0.0,0.0,54,0.00,,,0.00,Wunderground v.1.15,2013-03-15 02:45:00,
2013-03-14 22:50:00,39.7,25.3,30.18,WNW,285,0.0,0.0,56,0.00,,,0.00,Wunderground v.1.15,2013-03-15 02:50:00,
2013-03-14 22:55:00,39.5,25.5,30.18,WNW,285,0.0,0.0,57,0.00,,,0.00,Wunderground v.1.15,2013-03-15 02:55:00,
2013-03-14 23:00:00,39.2,26.5,30.18,WNW,285,0.0,0.0,60,0.00,,,0.00,Wunderground v.1.15,2013-03-15 03:00:00,
2013-03-14 23:05:00,38.8,26.1,30.18,WNW,285,0.0,0.0,60,0.00,,,0.00,Wunderground v.1.15,2013-03-15 03:05:00,
2013-03-14 23:15:00,39.2,23.5,30.18,WNW,286,0.0,0.0,53,0.00,,,0.00,Wunderground v.1.15,2013-03-15 03:15:00,
2013-03-14 23:20:00,40.0,22.8,30.18,WNW,287,0.0,0.0,50,0.00,,,0.00,Wunderground v.1.15,2013-03-15 03:20:00,
2013-03-14 23:25:00,40.2,23.0,30.18,WNW,287,0.0,0.0,50,0.00,,,0.00,Wunderground v.1.15,2013-03-15 03:25:00,
2013-03-14 23:30:00,40.0,23.8,30.18,WNW,287,0.0,0.0,52,0.00,,,0.00,Wunderground v.1.15,2013-03-15 03:30:00,
2013-03-14 23:45:00,39.0,24.2,30.18,WNW,287,0.0,0.0,55,0.00,,,0.00,Wunderground v.1.15,2013-03-15 03:45:00,
2013-03-14 23:50:00,39.0,23.7,30.18,WNW,287,0.0,0.0,54,0.00,,,0.00,Wunderground v.1.15,2013-03-15 03:50:00,
2013-03-14 23:55:00,39.0,23.7,30.19,WNW,287,0.0,0.0,54,0.00,,,0.00,Wunderground v.1.15,2013-03-15 03:55:00,